Time,TemperatureF,DewpointF,PressureIn,WindDirection,WindDirectionDegrees,WindSpeedMPH,WindSpeedGustMPH,Humidity,HourlyPrecipIn,Conditions,Clouds,dailyrainin,SoftwareType,DateUTC
2013-09-06 00:01:00,57.4,53.0,30.10,SSW,205,0.0,1.0,85,0.00,,,0.00,weatherlink.com 1.10,2013-09-06 04:01:00,
2013-09-06 00:16:00,57.2,53.0,30.10,ESE,115,0.0,2.0,86,0.00,,,0.00,weatherlink.com 1.10,2013-09-06 04:16:00,
2013-09-06 00:31:00,57.0,53.0,30.10,SSW,203,0.0,1.0,87,0.00,,,0.00,weatherlink.com 1.10,2013-09-06 04:31:00,
2013-09-06 00:46:00,56.3,53.0,30.10,SW,214,0.0,1.0,89,0.00,,,0.00,weatherlink.com 1.10,2013-09-06 04:46:00,
2013-09-06 01:01:00,56.0,53.0,30.10,SW,228,0.0,1.0,90,0.00,,,0.00,weatherlink.com 1.10,2013-09-06 05:01:00,
2013-09-06 01:16:00,55.9,53.0,30.11,SW,224,0.0,1.0,91,0.00,,,0.00,weatherlink.com 1.10,2013-09-06 05:16:00,
2013-09-06 01:31:00,55.5,53.0,30.11,SE,127,0.0,4.0,91,0.00,,,0.00,weatherlink.com 1.10,2013-09-06 05:31:00,
2013-09-06 01:46:00,55.2,53.0,30.12,SSE,166,0.0,2.0,91,0.00,,,0.00,weatherlink.com 1.10,2013-09-06 05:46:00,
2013-09-06 02:01:00,54.9,52.0,30.12,SE,142,0.0,2.0,90,0.00,,,0.00,weatherlink.com 1.10,2013-09-06 06:01:00,
2013-09-06 02:16:00,54.9,51.0,30.13,ESE,117,1.0,4.0,87,0.00,,,0.00,weatherlink.com 1.10,2013-09-06 06:16:00,
2013-09-06 02:31:00,55.6,50.0,30.13,SSW,199,0.0,5.0,81,0.00,,,0.00,weatherlink.com 1.10,2013-09-06 06:31:00,
2013-09-06 02:46:00,55.7,49.0,30.13,ESE,107,3.0,5.0,79,0.00,,,0.00,weatherlink.com 1.10,2013-09-06 06:46:00,
2013-09-06 03:01:00,55.7,48.0,30.13,East,87,4.0,6.0,76,0.00,,,0.00,weatherlink.com 1.10,2013-09-06 07:01:00,
2013-09-06 03:16:00,55.5,47.0,30.13,NE,56,3.0,6.0,74,0.00,,,0.00,weatherlink.com 1.10,2013-09-06 07:16:00,
2013-09-06 03:31:00,55.2,47.0,30.14,ESE,115,0.0,6.0,73,0.00,,,0.00,weatherlink.com 1.10,2013-09-06 07:31:00,
2013-09-06 03:46:00,54.8,47.0,30.14,SSW,205,4.0,4.0,74,0.00,,,0.00,weatherlink.com 1.10,2013-09-06 07:46:00,
2013-09-06 04:01:00,54.5,46.0,30.14,SSE,159,1.0,5.0,74,0.00,,,0.00,weatherlink.com 1.10,2013-09-06 08:01:00,
2013-09-06 04:16:00,54.2,46.0,30.14,ESE,115,2.0,6.0,74,0.00,,,0.00,weatherlink.com 1.10,2013-09-06 08:16:00,
2013-09-06 04:31:00,54.1,46.0,30.14,ENE,59,2.0,5.0,75,0.00,,,0.00,weatherlink.com 1.10,2013-09-06 08:31:00,
2013-09-06 04:46:00,54.0,47.0,30.15,ESE,106,3.0,4.0,76,0.00,,,0.00,weatherlink.com 1.10,2013-09-06 08:46:00,
2013-09-06 05:01:00,-999.0,-99.9,30.15,North,-999,-999.0,-999.0,-999,0.00,,,0.00,weatherlink.com 1.10,2013-09-06 09:01:00,
2013-09-06 05:16:00,-999.0,-99.9,30.16,North,-999,-999.0,-999.0,-999,0.00,,,0.00,weatherlink.com 1.10,2013-09-06 09:16:00,
2013-09-06 05:32:00,-999.0,-99.9,30.16,North,-999,-999.0,-999.0,-999,0.00,,,0.00,weatherlink.com 1.10,2013-09-06 09:32:00,
2013-09-06 05:47:00,-999.0,-99.9,30.16,North,-999,-999.0,-999.0,-999,0.00,,,0.00,weatherlink.com 1.10,2013-09-06 09:47:00,
2013-09-06 06:02:00,-999.0,-99.9,30.16,North,-999,-999.0,-999.0,-999,0.00,,,0.00,weatherlink.com 1.10,2013-09-06 10:02:00,
2013-09-06 06:17:00,-999.0,-99.9,30.17,North,-999,-999.0,-999.0,-999,0.00,,,0.00,weatherlink.com 1.10,2013-09-06 10:17:00,
2013-09-06 06:32:00,-999.0,-99.9,30.18,North,-999,-999.0,-999.0,-999,0.00,,,0.00,weatherlink.com 1.10,2013-09-06 10:32:00,
2013-09-06 06:47:00,-999.0,-99.9,30.18,North,-999,-999.0,-999.0,-999,0.00,,,0.00,weatherlink.com 1.10,2013-09-06 10:47:00,
2013-09-06 07:02:00,-999.0,-99.9,30.18,North,-999,-999.0,-999.0,-999,0.00,,,0.00,weatherlink.com 1.10,2013-09-06 11:02:00,
2013-09-06 07:17:00,-999.0,-99.9,30.18,North,-999,-999.0,-999.0,-999,0.00,,,0.00,weatherlink.com 1.10,2013-09-06 11:17:00,
2013-09-06 07:32:00,54.3,46.0,30.18,East,92,3.0,6.0,74,0.00,,,0.00,weatherlink.com 1.10,2013-09-06 11:32:00,
2013-09-06 07:47:00,56.0,46.0,30.19,ESE,108,2.0,5.0,70,0.00,,,0.00,weatherlink.com 1.10,2013-09-06 11:47:00,
2013-09-06 08:02:00,56.7,46.0,30.19,ENE,72,2.0,5.0,68,0.00,,,0.00,weatherlink.com 1.10,2013-09-06 12:02:00,
2013-09-06 08:17:00,57.8,47.0,30.20,SW,228,1.0,4.0,68,0.00,,,0.00,weatherlink.com 1.10,2013-09-06 12:17:00,
2013-09-06 08:32:00,58.8,47.0,30.20,SW,231,1.0,4.0,66,0.00,,,0.00,weatherlink.com 1.10,2013-09-06 12:32:00,
2013-09-06 08:47:00,59.4,46.0,30.21,NE,51,4.0,5.0,62,0.00,,,0.00,weatherlink.com 1.10,2013-09-06 12:47:00,
2013-09-06 09:02:00,59.5,46.0,30.21,East,101,2.0,6.0,62,0.00,,,0.00,weatherlink.com 1.10,2013-09-06 13:02:00,
2013-09-06 09:17:00,60.4,47.0,30.21,East,97,3.0,4.0,62,0.00,,,0.00,weatherlink.com 1.10,2013-09-06 13:17:00,
2013-09-06 09:32:00,60.9,47.0,30.21,East,86,2.0,7.0,60,0.00,,,0.00,weatherlink.com 1.10,2013-09-06 13:32:00,
2013-09-06 09:47:00,61.7,47.0,30.21,SSE,153,0.0,6.0,59,0.00,,,0.00,weatherlink.com 1.10,2013-09-06 13:47:00,
2013-09-06 10:03:00,62.7,48.0,30.21,WSW,249,0.0,4.0,59,0.00,,,0.00,weatherlink.com 1.10,2013-09-06 14:03:00,
2013-09-06 10:18:00,63.0,47.0,30.21,ESE,122,0.0,5.0,57,0.00,,,0.00,weatherlink.com 1.10,2013-09-06 14:18:00,
2013-09-06 10:33:00,62.9,47.0,30.21,SW,225,0.0,3.0,56,0.00,,,0.00,weatherlink.com 1.10,2013-09-06 14:33:00,
2013-09-06 10:48:00,63.4,46.0,30.21,SW,222,0.0,5.0,54,0.00,,,0.00,weatherlink.com 1.10,2013-09-06 14:48:00,
2013-09-06 11:03:00,64.2,47.0,30.21,WNW,300,0.0,3.0,53,0.00,,,0.00,weatherlink.com 1.10,2013-09-06 15:03:00,
2013-09-06 11:18:00,65.7,47.0,30.21,South,169,1.0,4.0,51,0.00,,,0.00,weatherlink.com 1.10,2013-09-06 15:18:00,
2013-09-06 11:33:00,66.5,47.0,30.20,SSW,200,0.0,4.0,50,0.00,,,0.00,weatherlink.com 1.10,2013-09-06 15:33:00,
2013-09-06 11:48:00,67.6,47.0,30.20,East,100,0.0,3.0,48,0.00,,,0.00,weatherlink.com 1.10,2013-09-06 15:48:00,
2013-09-06 12:03:00,68.4,49.0,30.20,ESE,123,1.0,1.0,51,0.00,,,0.00,weatherlink.com 1.10,2013-09-06 16:03:00,
2013-09-06 12:18:00,69.3,51.0,30.20,ESE,114,0.0,2.0,53,0.00,,,0.00,weatherlink.com 1.10,2013-09-06 16:18:00,
2013-09-06 12:33:00,69.3,51.0,30.19,SE,127,1.0,2.0,53,0.00,,,0.00,weatherlink.com 1.10,2013-09-06 16:33:00,
2013-09-06 12:48:00,69.4,52.0,30.19,SSE,149,1.0,3.0,55,0.00,,,0.00,weatherlink.com 1.10,2013-09-06 16:48:00,
2013-09-06 13:03:00,69.6,51.0,30.19,ESE,119,2.0,2.0,51,0.00,,,0.00,weatherlink.com 1.10,2013-09-06 17:03:00,
2013-09-06 13:18:00,67.0,50.0,30.19,South,172,2.0,4.0,54,0.00,,,0.00,weatherlink.com 1.10,2013-09-06 17:18:00,
2013-09-06 13:33:00,68.1,51.0,30.19,South,169,1.0,4.0,55,0.00,,,0.00,weatherlink.com 1.10,2013-09-06 17:33:00,
2013-09-06 13:48:00,67.9,50.0,30.19,South,174,3.0,6.0,54,0.00,,,0.00,weatherlink.com 1.10,2013-09-06 17:48:00,
2013-09-06 14:03:00,68.3,51.0,30.18,SSW,193,4.0,4.0,54,0.00,,,0.00,weatherlink.com 1.10,2013-09-06 18:03:00,
2013-09-06 14:18:00,67.6,52.0,30.18,SSW,212,2.0,4.0,57,0.00,,,0.00,weatherlink.com 1.10,2013-09-06 18:18:00,
2013-09-06 14:33:00,67.0,49.0,30.17,South,184,4.0,4.0,53,0.00,,,0.00,weatherlink.com 1.10,2013-09-06 18:33:00,
2013-09-06 14:48:00,64.8,50.0,30.17,SSW,201,2.0,5.0,60,0.00,,,0.00,weatherlink.com 1.10,2013-09-06 18:48:00,
2013-09-06 15:03:00,66.8,51.0,30.16,South,172,2.0,4.0,58,0.00,,,0.00,weatherlink.com 1.10,2013-09-06 19:03:00,
2013-09-06 15:18:00,68.1,51.0,30.16,SSE,162,3.0,5.0,54,0.00,,,0.00,weatherlink.com 1.10,2013-09-06 19:18:00,
2013-09-06 15:33:00,67.6,50.0,30.15,SSW,195,1.0,4.0,54,0.00,,,0.00,weatherlink.com 1.10,2013-09-06 19:33:00,
2013-09-06 15:48:00,66.4,49.0,30.14,SW,215,3.0,5.0,54,0.00,,,0.00,weatherlink.com 1.10,2013-09-06 19:48:00,
2013-09-06 16:03:00,66.2,49.0,30.14,SSW,201,3.0,6.0,55,0.00,,,0.00,weatherlink.com 1.10,2013-09-06 20:03:00,
2013-09-06 16:18:00,65.7,49.0,30.13,SW,217,1.0,5.0,56,0.00,,,0.00,weatherlink.com 1.10,2013-09-06 20:18:00,
2013-09-06 16:33:00,65.8,49.0,30.13,SSW,193,4.0,6.0,54,0.00,,,0.00,weatherlink.com 1.10,2013-09-06 20:33:00,
2013-09-06 16:48:00,65.1,49.0,30.13,SSW,205,4.0,5.0,56,0.00,,,0.00,weatherlink.com 1.10,2013-09-06 20:48:00,
2013-09-06 17:03:00,65.4,50.0,30.13,SSW,208,2.0,5.0,57,0.00,,,0.00,weatherlink.com 1.10,2013-09-06 21:03:00,
2013-09-06 17:18:00,65.2,50.0,30.13,SSW,198,3.0,5.0,58,0.00,,,0.00,weatherlink.com 1.10,2013-09-06 21:18:00,
2013-09-06 17:33:00,65.1,50.0,30.13,WSW,243,1.0,5.0,58,0.00,,,0.00,weatherlink.com 1.10,2013-09-06 21:33:00,
2013-09-06 17:48:00,65.2,50.0,30.13,SSW,208,2.0,5.0,58,0.00,,,0.00,weatherlink.com 1.10,2013-09-06 21:48:00,
2013-09-06 18:03:00,65.4,50.0,30.12,SW,219,2.0,4.0,58,0.00,,,0.00,weatherlink.com 1.10,2013-09-06 22:03:00,
2013-09-06 18:18:00,66.2,51.0,30.13,SSW,211,1.0,2.0,58,0.00,,,0.00,weatherlink.com 1.10,2013-09-06 22:18:00,
2013-09-06 18:33:00,64.9,50.0,30.13,West,260,1.0,2.0,59,0.00,,,0.00,weatherlink.com 1.10,2013-09-06 22:33:00,
2013-09-06 18:48:00,63.4,50.0,30.12,SW,228,1.0,2.0,61,0.00,,,0.00,weatherlink.com 1.10,2013-09-06 22:48:00,
2013-09-06 19:03:00,62.2,50.0,30.12,WSW,257,0.0,2.0,65,0.00,,,0.00,weatherlink.com 1.10,2013-09-06 23:03:00,
2013-09-06 19:18:00,61.4,50.0,30.12,WSW,252,0.0,1.0,66,0.00,,,0.00,weatherlink.com 1.10,2013-09-06 23:18:00,
2013-09-06 19:33:00,61.1,50.0,30.12,WSW,257,0.0,1.0,66,0.00,,,0.00,weatherlink.com 1.10,2013-09-06 23:33:00,
2013-09-06 19:48:00,60.9,50.0,30.12,WSW,245,0.0,3.0,68,0.00,,,0.00,weatherlink.com 1.10,2013-09-06 23:48:00,
2013-09-06 20:03:00,61.1,52.0,30.12,SW,217,0.0,3.0,73,0.00,,,0.00,weatherlink.com 1.10,2013-09-07 00:03:00,
2013-09-06 20:18:00,61.8,53.0,30.12,SW,217,0.0,3.0,72,0.00,,,0.00,weatherlink.com 1.10,2013-09-07 00:18:00,
2013-09-06 20:33:00,61.7,53.0,30.12,SW,236,1.0,3.0,72,0.00,,,0.00,weatherlink.com 1.10,2013-09-07 00:33:00,
2013-09-06 20:48:00,62.0,53.0,30.12,West,263,0.0,3.0,73,0.00,,,0.00,weatherlink.com 1.10,2013-09-07 00:48:00,
2013-09-06 21:03:00,62.1,53.0,30.12,SSW,208,0.0,3.0,73,0.00,,,0.00,weatherlink.com 1.10,2013-09-07 01:03:00,
2013-09-06 21:18:00,62.1,53.0,30.12,SW,217,2.0,4.0,73,0.00,,,0.00,weatherlink.com 1.10,2013-09-07 01:18:00,
2013-09-06 21:33:00,62.3,53.0,30.12,SSW,204,2.0,4.0,71,0.00,,,0.00,weatherlink.com 1.10,2013-09-07 01:33:00,
2013-09-06 21:48:00,62.3,53.0,30.12,South,191,3.0,4.0,71,0.00,,,0.00,weatherlink.com 1.10,2013-09-07 01:48:00,
2013-09-06 22:03:00,62.4,52.0,30.11,SSW,200,3.0,4.0,70,0.00,,,0.00,weatherlink.com 1.10,2013-09-07 02:03:00,
2013-09-06 22:18:00,62.5,53.0,30.11,SW,220,2.0,4.0,72,0.00,,,0.00,weatherlink.com 1.10,2013-09-07 02:18:00,
2013-09-06 22:33:00,62.6,53.0,30.11,SSW,212,2.0,5.0,72,0.00,,,0.00,weatherlink.com 1.10,2013-09-07 02:33:00,
2013-09-06 22:48:00,62.5,54.0,30.11,SSW,210,3.0,3.0,73,0.00,,,0.00,weatherlink.com 1.10,2013-09-07 02:48:00,
2013-09-06 23:03:00,62.4,54.0,30.11,SSW,213,2.0,4.0,73,0.00,,,0.00,weatherlink.com 1.10,2013-09-07 03:03:00,
2013-09-06 23:18:00,62.0,54.0,30.10,WSW,250,0.0,4.0,74,0.00,,,0.00,weatherlink.com 1.10,2013-09-07 03:18:00,
2013-09-06 23:33:00,60.3,53.0,30.10,WSW,249,0.0,0.0,78,0.00,,,0.00,weatherlink.com 1.10,2013-09-07 03:33:00,
2013-09-06 23:48:00,58.6,54.0,30.10,WSW,249,0.0,0.0,84,0.00,,,0.00,weatherlink.com 1.10,2013-09-07 03:48:00,